Latest Weather Observations for Cape Bruny AWS

IDT60901

Issued at 4:51 am EST Sunday 30 August 2015 (issued every 10 minutes, with the page automatically refreshed every 10 minutes)

About weather observations | Map of Hobart area stations | Latest observations for Hobart area | Other Formats
Station Details ID: 094198 Name: CAPE BRUNY (CAPE BRUNY) Lat: -43.49 Lon: 147.14 Height: 59.7 m
Data from the previous 72 hours. | See also: Recent months at Cape Bruny AWS
Date/Time
EST
Tmp

°C
App
Tmp
°C
Dew
Point
°C
Rel
Hum
%
Delta-T

°C
Wind Press
QNH
hPa
Press
MSL
hPa
Rain
since
9 am
mm
Dir
 
Spd
km/h
Gust
km/h
Spd
kts
Gust
kts
30/04:30am 7.4 0.8 4.2 80 1.4 S 28 52 15 28 1025.1 1025.2 0.2
30/04:02am 7.1 0.5 4.2 82 1.3 S 28 46 15 25 1025.0 1025.1 0.2
30/04:00am 7.3 1.2 4.6 83 1.2 S 26 46 14 25 1024.8 1024.9 0.2
30/03:30am 7.2 2.2 4.5 83 1.2 S 20 33 11 18 1025.0 1025.1 0.2
30/03:00am 7.4 1.9 4.0 79 1.5 S 22 35 12 19 1025.1 1025.2 0.2
30/02:30am 7.6 2.5 3.1 73 1.9 SW 19 30 10 16 1025.3 1025.4 0.2
30/02:00am 7.0 1.4 3.4 78 1.5 SSW 22 35 12 19 1025.8 1025.9 0.2
30/01:30am 7.2 0.1 3.4 77 1.6 S 30 44 16 24 1025.9 1026.0 0.2
30/01:13am 7.4 0.6 3.3 75 1.7 S 28 46 15 25 1025.8 1025.9 0.2
30/01:00am 7.2 1.6 3.3 76 1.6 S 22 35 12 19 1025.9 1026.0 0.2
30/12:30am 7.5 1.0 2.4 70 2.1 S 26 39 14 21 1025.9 1026.0 0.2
30/12:00am 7.4 0.5 2.5 71 2.0 S 28 46 15 25 1026.1 1026.2 0.2
 
Date/Time
EST
Tmp

°C
App
Tmp
°C
Dew
Point
°C
Rel
Hum
%
Delta-T

°C
Wind Press
QNH
hPa
Press
MSL
hPa
Rain
since
9 am
mm
Dir
 
Spd
km/h
Gust
km/h
Spd
kts
Gust
kts
29/11:54pm 7.2 0.3 2.3 71 2.0 S 28 46 15 25 1026.1 1026.2 0.2
29/11:30pm 6.9 0.9 3.3 78 1.5 SSW 24 41 13 22 1026.3 1026.4 0.2
29/11:00pm 7.7 1.5 2.4 69 2.2 S 24 41 13 22 1026.2 1026.3 0.2
29/10:30pm 7.5 1.7 2.4 70 2.1 SSW 22 39 12 21 1026.3 1026.4 0.2
29/10:00pm 7.4 0.3 1.5 66 2.4 S 28 41 15 22 1026.3 1026.4 0.2
29/09:36pm 7.6 0.7 2.5 70 2.1 S 28 46 15 25 1026.3 1026.4 0.2
29/09:30pm 7.5 1.3 2.0 68 2.3 SSW 24 41 13 22 1026.3 1026.4 0.2
29/09:00pm 7.5 -0.2 2.2 69 2.2 S 32 50 17 27 1026.3 1026.4 0.2
29/08:52pm 7.6 -0.1 2.5 70 2.1 S 32 50 17 27 1026.2 1026.3 0.2
29/08:30pm 7.5 -0.2 2.4 70 2.1 S 32 43 17 23 1026.2 1026.3 0.2
29/08:00pm 7.8 0.6 3.1 72 2.0 SSW 30 50 16 27 1026.0 1026.1 0.2
29/07:42pm 7.8 1.0 3.3 73 1.9 S 28 46 15 25 1026.0 1026.1 0.2
29/07:30pm 7.6 1.9 2.7 71 2.1 SSW 22 43 12 23 1026.0 1026.1 0.2
29/07:02pm 7.7 0.5 3.0 72 2.0 S 30 48 16 26 1025.6 1025.7 0.2
29/07:00pm 7.7 0.1 2.8 71 2.0 S 32 48 17 26 1025.7 1025.8 0.2
29/06:30pm 7.6 -0.1 2.5 70 2.1 S 32 46 17 25 1025.4 1025.5 0.2
29/06:05pm 7.8 0.0 2.7 70 2.1 S 33 57 18 31 1025.0 1025.1 0.2
29/06:00pm 7.9 0.7 3.2 72 2.0 S 30 44 16 24 1024.9 1025.0 0.2
29/05:30pm 7.8 -0.5 2.3 68 2.3 S 35 56 19 30 1024.9 1025.0 0.2
29/05:24pm 8.0 0.4 3.1 71 2.1 S 32 50 17 27 1024.7 1024.8 0.2
29/05:00pm 8.1 0.4 3.6 73 1.9 S 33 44 18 24 1024.5 1024.6 0.2
29/04:30pm 7.8 0.3 3.3 73 1.9 S 32 52 17 28 1024.4 1024.5 0.2
29/04:05pm 8.0 -0.1 3.3 72 2.0 S 35 57 19 31 1024.3 1024.4 0.2
29/04:00pm 8.0 0.0 3.7 74 1.8 S 35 50 19 27 1024.3 1024.4 0.2
29/03:31pm 8.1 0.7 3.8 74 1.9 S 32 50 17 27 1024.4 1024.5 0.2
29/03:30pm 8.2 0.6 3.7 73 1.9 S 33 50 18 27 1024.4 1024.5 0.2
29/03:15pm 8.0 1.0 4.0 76 1.7 S 30 48 16 26 1024.4 1024.5 0.2
29/03:00pm 8.2 0.2 3.9 74 1.9 S 35 50 19 27 1024.3 1024.4 0.2
29/02:34pm 8.0 -0.1 3.3 72 2.0 S 35 56 19 30 1024.1 1024.2 0.2
29/02:30pm 8.1 0.1 3.9 75 1.8 S 35 52 19 28 1024.1 1024.2 0.2
29/02:09pm 8.3 1.0 4.3 76 1.8 S 32 50 17 27 1024.0 1024.1 0.2
29/02:00pm 8.2 0.7 4.2 76 1.7 S 33 50 18 27 1024.0 1024.1 0.2
29/01:30pm 8.0 -0.2 4.6 79 1.5 S 37 59 20 32 1023.8 1023.9 0.2
29/01:00pm 8.0 -0.6 4.6 79 1.5 S 39 59 21 32 1023.9 1024.0 0.2
29/12:34pm 8.3 -0.3 4.5 77 1.7 S 39 57 21 31 1023.8 1023.9 0.2
29/12:30pm 8.1 -0.9 4.5 78 1.6 S 41 54 22 29 1023.9 1024.0 0.2
29/12:00pm 8.2 0.0 4.6 78 1.6 S 37 59 20 32 1024.1 1024.2 0.2
29/11:30am 8.3 -0.2 5.1 80 1.4 S 39 59 21 32 1024.0 1024.1 0.2
29/11:00am 8.1 -0.4 5.0 81 1.4 S 39 57 21 31 1023.9 1024.0 0.0
29/10:30am 8.3 -1.0 5.2 81 1.4 S 43 57 23 31 1023.9 1024.0 0.0
29/10:02am 8.4 -1.0 5.3 81 1.4 SSE 44 65 24 35 1023.8 1023.9 0.0
29/10:00am 8.3 -1.0 5.1 80 1.4 SSE 43 56 23 30 1023.9 1024.0 0.0
29/09:42am 8.3 -0.6 5.2 81 1.4 SSE 41 59 22 32 1023.8 1023.9 0.0
29/09:30am 8.2 -0.6 5.5 83 1.2 S 41 56 22 30 1023.8 1023.9 0.0
29/09:06am 8.3 -0.4 5.9 85 1.1 S 41 59 22 32 1023.6 1023.7 0.0
29/09:00am 8.2 -0.9 5.8 85 1.1 S 43 59 23 32 1023.5 1023.6 18.0
29/08:32am 7.8 -1.3 5.8 87 0.9 SSE 43 61 23 33 1023.3 1023.4 18.0
29/08:30am 7.8 -1.3 5.8 87 0.9 S 43 59 23 32 1023.3 1023.4 18.0
29/08:00am 8.1 -0.9 6.4 89 0.8 S 43 65 23 35 1022.9 1023.0 18.0
29/07:31am 8.1 -1.1 6.4 89 0.8 S 44 63 24 34 1022.4 1022.5 18.0
29/07:30am 8.2 -0.7 6.7 90 0.7 S 43 59 23 32 1022.5 1022.6 18.0
29/07:00am 8.3 -0.6 6.8 90 0.7 S 43 69 23 37 1022.2 1022.3 18.0
29/06:33am 8.4 -0.7 6.9 90 0.7 SSE 44 65 24 35 1021.7 1021.8 17.6
29/06:30am 8.3 -0.8 6.6 89 0.8 SSE 44 59 24 32 1021.6 1021.7 17.6
29/06:00am 8.4 -1.8 6.9 90 0.7 SSE 50 70 27 38 1021.1 1021.2 17.6
29/05:30am 8.7 -1.8 7.2 90 0.7 SSE 52 72 28 39 1020.5 1020.6 16.8
29/05:03am 8.9 -2.3 7.4 90 0.7 SSE 56 74 30 40 1020.1 1020.2 16.0
29/05:00am 8.9 -2.3 7.4 90 0.7 SSE 56 72 30 39 1020.0 1020.1 15.8
29/04:30am 9.1 -2.1 7.5 90 0.8 SSE 56 74 30 40 1019.7 1019.7 15.4
29/04:00am 8.8 -0.5 7.4 91 0.7 S 46 69 25 37 1019.2 1019.2 14.2
29/03:56am 9.0 1.1 7.8 92 0.6 SSE 39 67 21 36 1019.2 1019.2 14.0
29/03:43am 8.4 2.1 7.2 92 0.6 SSE 30 48 16 26 1019.3 1019.3 13.4
29/03:30am 8.3 3.1 7.1 92 0.6 S 24 39 13 21 1019.3 1019.3 12.4
29/03:00am 7.3 3.2 6.1 92 0.5 S 17 24 9 13 1019.5 1019.5 11.0
29/02:30am 6.8 2.6 5.6 92 0.5 SSE 17 24 9 13 1019.7 1019.7 10.6
29/02:00am 6.5 2.6 5.3 92 0.5 S 15 24 8 13 1019.4 1019.4 10.6
29/01:30am 6.5 2.9 5.1 91 0.6 SSE 13 22 7 12 1019.2 1019.2 10.6
29/01:00am 6.3 1.5 4.8 90 0.7 SSE 19 28 10 15 1018.8 1018.9 10.2
29/12:30am 6.5 0.8 4.8 89 0.7 SSE 24 32 13 17 1018.8 1018.9 9.6
29/12:00am 6.8 1.1 5.1 89 0.7 S 24 35 13 19 1019.0 1019.1 8.2
 
Date/Time
EST
Tmp

°C
App
Tmp
°C
Dew
Point
°C
Rel
Hum
%
Delta-T

°C
Wind Press
QNH
hPa
Press
MSL
hPa
Rain
since
9 am
mm
Dir
 
Spd
km/h
Gust
km/h
Spd
kts
Gust
kts
28/11:30pm 7.0 -0.8 5.0 87 0.9 S 35 56 19 30 1019.4 1019.4 6.8
28/11:00pm 6.7 -2.7 4.4 85 1.0 S 43 72 23 39 1019.4 1019.4 5.2
28/10:30pm 7.6 -1.1 4.2 79 1.5 SSW 39 59 21 32 1019.5 1019.5 4.0
28/10:24pm 7.4 -1.9 4.9 84 1.1 SW 43 69 23 37 1019.6 1019.6 4.0
28/10:00pm 6.5 -2.9 4.3 86 0.9 SW 43 63 23 34 1020.0 1020.1 3.8
28/09:38pm 6.4 -5.5 4.2 86 0.9 SW 56 74 30 40 1020.2 1020.3 3.8
28/09:30pm 6.5 -6.0 4.3 86 0.9 SW 59 74 32 40 1020.4 1020.5 3.8
28/09:04pm 6.3 -4.5 4.0 85 1.0 SW 50 85 27 46 1020.9 1021.0 3.8
28/09:01pm 6.7 -4.4 4.7 87 0.9 SW 52 78 28 42 1020.8 1020.9 3.8
28/09:00pm 6.4 -5.1 4.2 86 0.9 SW 54 78 29 42 1020.8 1020.9 3.8
28/08:30pm 6.0 -7.0 3.7 85 1.0 SW 61 80 33 43 1021.3 1021.4 3.6
28/08:11pm 5.8 -4.4 3.1 83 1.1 SW 46 85 25 46 1021.3 1021.4 3.6
28/08:00pm 5.8 -3.1 3.3 84 1.0 SW 39 69 21 37 1021.3 1021.4 3.6
28/07:30pm 5.7 -6.0 3.2 84 1.0 SW 54 80 29 43 1021.8 1021.9 3.0
28/07:00pm 5.4 -4.4 3.4 87 0.8 SW 44 67 24 36 1022.0 1022.1 2.8
28/06:30pm 4.7 -6.4 2.2 84 1.0 SW 50 74 27 40 1022.6 1022.7 2.2
28/06:00pm 4.3 -5.6 1.7 83 1.0 SW 43 72 23 39 1023.2 1023.3 1.2
28/05:43pm 4.2 -4.9 2.1 86 0.8 SW 39 61 21 33 1023.2 1023.3 1.2
28/05:35pm 3.5 -8.5 1.4 86 0.8 SW 54 87 29 47 1023.5 1023.6 1.0
28/05:30pm 4.2 -6.3 1.7 84 1.0 SW 46 87 25 47 1023.7 1023.8 0.8
28/05:28pm 4.4 -4.7 1.6 82 1.1 SW 39 87 21 47 1023.7 1023.8 0.8
28/05:26pm 4.6 -3.2 2.0 83 1.0 WSW 32 67 17 36 1023.5 1023.6 0.8
28/05:19pm 4.1 -5.8 1.6 84 1.0 SW 43 76 23 41 1023.6 1023.7 0.8
28/05:16pm 3.9 -7.1 0.9 81 1.2 SW 48 76 26 41 1023.9 1024.0 0.8
28/05:13pm 4.2 -6.8 0.9 79 1.3 SW 48 76 26 41 1024.1 1024.2 0.6
28/05:11pm 4.8 -5.9 0.4 73 1.7 SW 46 76 25 41 1024.1 1024.2 0.4
28/05:00pm 6.2 -4.1 -1.0 60 2.7 SW 43 67 23 36 1023.6 1023.7 0.4
28/04:35pm 6.5 -4.6 0.2 64 2.5 SW 48 67 26 36 1023.8 1023.9 0.4
28/04:30pm 6.7 -4.2 -1.4 56 3.0 SW 46 61 25 33 1023.8 1023.9 0.4
28/04:00pm 6.3 -3.8 0.4 66 2.3 SW 43 69 23 37 1024.4 1024.5 0.4
28/03:49pm 6.6 -3.6 -0.6 60 2.8 SW 43 80 23 43 1024.4 1024.5 0.4
28/03:34pm 6.8 -0.6 -0.6 59 2.8 SW 28 54 15 29 1024.4 1024.5 0.2
28/03:30pm 6.2 -0.2 0.9 69 2.1 SW 24 43 13 23 1024.5 1024.6 0.2
28/03:00pm 7.6 -2.3 -3.6 45 4.0 SW 39 63 21 34 1024.7 1024.8 0.2
28/02:30pm 7.6 -2.7 -0.8 55 3.2 SW 43 63 23 34 1024.8 1024.9 0.2
28/02:00pm 7.4 -2.1 -0.8 56 3.1 SW 39 57 21 31 1025.0 1025.1 0.2
28/01:47pm 6.6 -2.4 0.3 64 2.5 SW 37 57 20 31 1025.1 1025.2 0.2
28/01:30pm 6.3 -1.5 1.6 72 1.9 S 32 54 17 29 1025.3 1025.4 0.2
28/01:00pm 6.2 -1.7 1.3 71 1.9 SSW 32 56 17 30 1025.9 1026.0 0.0
28/12:30pm 7.9 -0.3 0.6 60 2.9 S 33 63 18 34 1026.1 1026.2 0.0
28/12:00pm 7.6 -2.1 0.3 60 2.9 S 41 59 22 32 1026.5 1026.6 0.0
28/11:36am 8.2 -0.1 2.0 65 2.6 S 35 54 19 29 1026.8 1026.9 0.0
28/11:30am 7.2 -2.2 0.2 61 2.8 S 39 54 21 29 1026.8 1026.9 0.0
28/11:00am 8.0 -1.3 0.7 60 2.9 S 39 59 21 32 1026.8 1026.9 0.0
28/10:30am 7.3 -2.3 1.4 66 2.4 S 41 61 22 33 1027.0 1027.1 0.0
28/10:10am 7.0 -0.4 1.7 69 2.2 SSW 30 48 16 26 1026.9 1027.0 0.0
28/10:00am 6.4 -1.1 1.3 70 2.0 SSW 30 50 16 27 1026.9 1027.0 0.0
28/09:57am 6.9 -0.5 1.8 70 2.1 SSW 30 50 16 27 1026.9 1027.0 0.0
28/09:30am 6.6 -2.9 1.7 71 2.0 S 41 65 22 35 1026.9 1027.0 0.0
28/09:02am 6.3 -1.9 2.8 78 1.5 S 35 54 19 29 1026.9 1027.0 0.0
28/09:00am 6.0 -2.2 2.5 78 1.4 S 35 50 19 27 1026.9 1027.0 4.4
28/08:30am 4.3 -4.4 2.0 85 0.9 SSE 37 59 20 32 1027.2 1027.3 4.2
28/08:00am 5.1 -5.3 1.9 80 1.3 S 46 69 25 37 1027.0 1027.1 3.8
28/07:51am 6.4 -2.3 2.3 75 1.7 S 37 67 20 36 1026.7 1026.8 3.8
28/07:36am 5.8 -1.1 2.3 78 1.4 S 28 46 15 25 1026.5 1026.6 3.8
28/07:30am 4.7 -2.1 1.0 77 1.4 S 26 37 14 20 1026.4 1026.5 3.8
28/07:00am 6.6 -1.8 1.7 71 2.0 S 35 69 19 37 1026.0 1026.1 3.8
28/06:30am 5.4 -3.1 0.6 71 1.9 SW 35 54 19 29 1025.9 1026.0 3.8
28/06:00am 5.7 -2.1 1.6 75 1.6 S 32 61 17 33 1025.7 1025.8 3.8
28/05:45am 4.7 -3.2 0.8 76 1.5 SSW 32 56 17 30 1025.8 1025.9 3.6
28/05:42am 5.6 -1.9 1.5 75 1.6 SW 30 56 16 30 1025.8 1025.9 3.2
28/05:41am 5.9 -1.2 1.6 74 1.7 SW 28 56 15 30 1025.8 1025.9 3.2
28/05:30am 5.9 -1.3 0.5 68 2.1 SW 28 41 15 22 1025.6 1025.7 3.2
28/05:19am 6.5 -0.8 0.2 64 2.5 SW 28 50 15 27 1025.4 1025.5 3.2
28/05:17am 6.6 -0.2 1.1 68 2.2 SW 26 48 14 26 1025.3 1025.4 3.2
28/05:01am 6.0 -2.5 0.8 69 2.0 SW 35 56 19 30 1025.3 1025.4 3.2
28/05:00am 6.1 -2.0 1.1 70 2.0 SW 33 56 18 30 1025.2 1025.3 3.2
28/04:57am 5.9 -1.7 0.3 67 2.2 SW 30 56 16 30 1025.2 1025.3 3.2
28/04:31am 6.1 -1.9 1.4 72 1.9 S 33 52 18 28 1025.0 1025.1 3.2
28/04:30am 6.2 -2.2 1.5 72 1.9 S 35 52 19 28 1025.0 1025.1 3.2
28/04:00am 6.8 -1.8 0.3 63 2.5 S 35 54 19 29 1024.7 1024.8 3.2
28/03:30am 7.2 -0.5 2.3 71 2.0 S 32 50 17 27 1024.5 1024.6 3.2
28/03:21am 7.0 -0.9 1.3 67 2.3 S 32 50 17 27 1024.6 1024.7 3.2
28/03:00am 6.8 -1.1 2.3 73 1.8 S 33 48 18 26 1024.5 1024.6 3.2
28/02:30am 6.9 -1.6 3.3 78 1.5 S 37 54 20 29 1024.6 1024.7 3.2
28/02:05am 6.9 -1.2 3.2 77 1.6 S 35 61 19 33 1024.6 1024.7 3.2
28/02:00am 6.8 -0.9 3.2 78 1.5 S 33 50 18 27 1024.7 1024.8 3.2
28/01:35am 6.6 -0.8 3.8 82 1.2 S 32 50 17 27 1024.5 1024.6 3.0
28/01:30am 6.6 -0.4 3.9 83 1.2 S 30 44 16 24 1024.5 1024.6 2.8
28/01:12am 6.7 -0.2 4.7 87 0.9 S 30 50 16 27 1024.4 1024.5 2.8
28/01:00am 6.7 -0.2 4.7 87 0.9 SSE 30 43 16 23 1024.2 1024.3 2.6
28/12:30am 7.3 0.1 5.1 86 1.0 S 32 44 17 24 1023.9 1024.0 2.0
28/12:00am 7.4 0.6 5.0 85 1.1 S 30 48 16 26 1023.6 1023.7 1.6
 
Date/Time
EST
Tmp

°C
App
Tmp
°C
Dew
Point
°C
Rel
Hum
%
Delta-T

°C
Wind Press
QNH
hPa
Press
MSL
hPa
Rain
since
9 am
mm
Dir
 
Spd
km/h
Gust
km/h
Spd
kts
Gust
kts
27/11:55pm 7.3 -0.1 5.1 86 1.0 S 33 52 18 28 1023.6 1023.7 1.6
27/11:30pm 7.6 0.0 5.6 87 0.9 S 35 50 19 27 1023.3 1023.4 1.6
27/11:00pm 7.5 -0.5 5.8 89 0.8 S 37 57 20 31 1023.3 1023.4 1.6
27/10:38pm 8.2 2.0 6.3 88 0.9 SSW 28 48 15 26 1023.2 1023.3 1.4
27/10:30pm 8.7 4.1 6.7 87 0.9 W 20 33 11 18 1023.2 1023.3 1.0
27/10:00pm 8.8 3.4 6.2 84 1.2 WSW 24 35 13 19 1023.1 1023.2 0.0
27/09:30pm 8.6 3.8 5.4 80 1.4 W 20 26 11 14 1023.1 1023.2 0.0
27/09:00pm 8.9 2.6 5.5 79 1.5 W 28 33 15 18 1023.1 1023.2 0.0
27/08:30pm 9.1 3.9 5.3 77 1.7 W 22 28 12 15 1022.9 1023.0 0.0
27/08:00pm 8.7 2.2 4.9 77 1.7 WSW 28 33 15 18 1022.9 1023.0 0.0
27/07:30pm 8.9 2.5 5.3 78 1.6 WSW 28 33 15 18 1022.7 1022.8 0.0
27/07:00pm 9.1 1.8 4.7 74 2.0 WSW 32 39 17 21 1022.3 1022.4 0.0
27/06:30pm 9.3 3.4 5.9 79 1.6 WSW 26 33 14 18 1022.2 1022.3 0.0
27/06:00pm 9.4 3.8 5.4 76 1.8 WSW 24 30 13 16 1022.1 1022.2 0.0
27/05:30pm 9.6 3.5 5.0 73 2.1 WSW 26 33 14 18 1021.9 1022.0 0.0
27/05:00pm 9.7 4.8 5.3 74 2.0 WSW 20 26 11 14 1021.8 1021.9 0.0
27/04:30pm 9.9 5.4 6.1 77 1.8 SW 19 26 10 14 1021.8 1021.9 0.0
27/04:00pm 9.9 4.4 5.9 76 1.8 SW 24 30 13 16 1021.8 1021.9 0.0
27/03:30pm 9.9 5.4 6.2 78 1.7 SW 19 24 10 13 1022.0 1022.1 0.0
27/03:00pm 10.0 6.8 6.7 80 1.5 WSW 13 20 7 11 1021.9 1022.0 0.0
27/02:30pm 10.6 7.4 6.9 78 1.8 SW 13 17 7 9 1021.9 1022.0 0.0
27/02:00pm 10.7 8.3 7.0 78 1.8 WSW 9 13 5 7 1022.1 1022.2 0.0
27/01:30pm 11.4 9.1 7.3 76 2.0 SW 9 15 5 8 1022.3 1022.4 0.0
27/01:00pm 10.9 8.1 7.0 77 1.8 W 11 13 6 7 1022.6 1022.7 0.0
27/12:30pm 11.0 9.1 6.6 74 2.1 WNW 6 7 3 4 1022.7 1022.8 0.0
27/12:00pm 10.8 8.8 6.2 73 2.1 WNW 6 7 3 4 1023.1 1023.2 0.0
27/11:30am 10.5 8.4 6.6 77 1.8 W 7 9 4 5 1023.3 1023.4 0.0
27/11:00am 10.5 8.7 7.2 80 1.6 WNW 6 9 3 5 1023.5 1023.6 0.0
27/10:30am 10.1 7.8 7.3 83 1.3 NNE 9 11 5 6 1023.6 1023.7 0.0
27/10:00am 9.6 7.4 7.7 88 0.9 N 9 11 5 6 1023.8 1023.9 0.0
27/09:30am 8.6 5.9 7.5 93 0.5 N 11 15 6 8 1023.9 1024.0 0.0
27/09:00am 6.8 2.2 5.7 93 0.5 N 19 20 10 11 1024.1 1024.2 0.2
27/08:30am 6.3 1.5 5.4 94 0.4 N 20 24 11 13 1024.2 1024.3 0.2
27/08:00am 6.0 1.1 5.1 94 0.4 N 20 28 11 15 1024.1 1024.2 0.2
27/07:30am 5.7 0.4 4.8 94 0.4 N 22 30 12 16 1023.9 1024.0 0.0
27/07:00am 5.4 1.0 4.5 94 0.4 N 17 20 9 11 1023.6 1023.7 0.0
27/06:30am 5.6 0.8 4.7 94 0.4 N 19 20 10 11 1023.5 1023.6 0.0
27/06:00am 5.8 1.0 4.9 94 0.4 N 19 22 10 12 1023.4 1023.5 0.0
27/05:30am 5.7 0.7 4.8 94 0.4 N 20 24 11 13 1023.4 1023.5 0.0
27/05:00am 5.8 1.0 4.9 94 0.4 N 19 24 10 13 1023.4 1023.5 0.0

Latest Capital City Observations: Canberra | Sydney | Melbourne | Brisbane | Adelaide | Perth | Hobart | Darwin

Other Formats:

Comma delimited format used in spreadsheet applications
http://www.bom.gov.au/fwo/IDT60901/IDT60901.95967.axf

JavaScript Object Notation format (JSON) in row-major order
http://www.bom.gov.au/fwo/IDT60901/IDT60901.95967.json